Wildwood Lake, Indiana
Current Conditions -  °F | °C
As of 4:35 PM on Saturday 22 Nov 2014 (Local Time) from KHNB Reporting Station
Clear Clear  
Wind Chill: 16°   Ceiling: Unl
Heat Index: 16°   Visibility: 10mi
Dew Point:   Wind: 14mph
Humidity: 45%   Direction: 190°S
Pressure: 30.08"   Gusts: 17mph
Location:  38.5454°N, 86.4243°W
Report Text: KHNB 222135Z AUTO 19012G15KT 10SM CLR 16/04 A3008 RMK AO1
Loading
Personal Weather Stations






























Interactive Weather Map New forecast layout! Learn more

10-Day Weather Forecast

Advertisements
Track Severe Weather on mobile